Data for 05/08/2006

Time Sea-Level Adjusted Pressure Absolute Pressure Temperature Relative Humidity Dew Point   
(mb) (inHg) (mb) (inHg) (C) (F) (%) (C) (F)
00:05 1012 29.88 841 24.83 7.9 46.3 76 4 39.2
00:10 1012 29.88 841 24.83 7.4 45.4 78 3.9 39
00:15 1012 29.88 841 24.83 7.6 45.6 77 3.8 38.8
00:20 1012 29.88 841 24.83 7.8 46 73 3.2 37.7
00:25 1012 29.88 841 24.83 8 46.5 73 3.4 38.2
00:30 1012 29.88 841 24.83 8 46.4 73 3.6 38.4
00:35 1012 29.88 841 24.83 7.8 46 74 3.4 38.1
00:40 1012 29.88 841 24.83 7.8 46 71 2.9 37.2
00:45 1012 29.88 841 24.83 7.9 46.3 69 2.5 36.5
00:50 1012 29.88 841 24.83 8.1 46.6 67 2.3 36.1
00:55 1012 29.88 841 24.83 7.9 46.2 69 2.6 36.6
01:00 1012 29.88 841 24.83 7.4 45.3 73 2.9 37.3
01:05 1012 29.88 841 24.83 7.2 45 72 2.5 36.5
01:10 1012 29.88 841 24.83 7.4 45.3 76 3.4 38.1
01:15 1012 29.88 841 24.83 7.2 44.9 74 2.9 37.2
01:20 1012 29.88 841 24.83 7.1 44.8 75 2.9 37.2
01:25 1012 29.88 841 24.83 7.1 44.8 73 2.5 36.6
01:30 1012 29.88 841 24.83 7.5 45.5 68 2.1 35.8
01:35 1012 29.88 841 24.83 7.8 46 67 2.1 35.8
01:40 1012 29.88 841 24.83 7.8 46 67 2.1 35.7
01:45 1012 29.88 841 24.83 7.6 45.8 66 1.8 35.3
01:50 1012 29.88 841 24.83 7.7 45.8 65 1.5 34.7
01:55 1012 29.88 842 24.86 7.7 45.9 65 1.5 34.6
02:00 1012 29.88 842 24.86 7.6 45.6 65 1.4 34.4
02:05 1012 29.88 842 24.86 7.6 45.6 63 0.9 33.6
02:10 1012 29.88 842 24.86 7.6 45.6 62 0.8 33.5
02:15 1012 29.88 842 24.86 7.6 45.6 62 0.8 33.4
02:20 1012 29.88 842 24.86 7.6 45.6 61 0.6 33.1
02:25 1012 29.88 841 24.83 7.6 45.6 60 0.3 32.5
02:30 1012 29.88 841 24.83 7.8 46 59 0.2 32.3
02:35 1012 29.88 841 24.83 7.8 46.1 59 0.3 32.5
02:40 1012 29.88 841 24.83 7.9 46.1 58 0.1 32.1
02:45 1012 29.88 841 24.83 8 46.3 57 -0 32
02:50 1012 29.88 841 24.83 7.8 46 63 1.1 34
02:55 1012 29.88 841 24.83 7 44.6 63 0.5 33
03:00 1012 29.88 841 24.83 7.1 44.8 61 0.1 32.3
03:05 1012 29.88 841 24.83 7.1 44.8 62 0.3 32.6
03:10 1012 29.88 841 24.83 7 44.6 63 0.3 32.6
03:15 1012 29.88 841 24.83 7 44.7 62 0.3 32.5
03:20 1012 29.88 841 24.83 7.1 44.8 61 0.2 32.4
03:25 1012 29.88 841 24.83 7.2 44.9 61 0.1 32.1
03:30 1012 29.88 841 24.83 7.2 44.9 60 0 32
03:35 1012 29.88 841 24.83 7.2 45 59 -0.2 31.7
03:40 1012 29.88 841 24.83 7.3 45.1 60 -0 32
03:45 1012 29.88 842 24.86 7.2 44.9 59 -0.3 31.5
03:50 1012 29.88 842 24.86 7.3 45.1 57 -0.7 30.8
03:55 1012 29.88 842 24.86 7.4 45.3 57 -0.5 31
04:00 1012 29.88 841 24.83 7.4 45.4 55 -1 30.3
04:05 1012 29.88 841 24.83 7.5 45.5 54 -1.1 30
04:10 1012 29.88 841 24.83 7.6 45.7 53 -1.3 29.6
04:15 1012 29.88 841 24.83 7.7 45.8 53 -1.2 29.9
04:20 1012 29.88 841 24.83 7.7 45.8 54 -1.1 30
04:25 1012 29.88 842 24.86 7.6 45.8 54 -1.1 30
04:30 1012 29.88 842 24.86 7.7 45.8 53 -1.2 29.9
04:35 1012 29.88 842 24.86 7.7 45.9 54 -0.9 30.3
04:40 1012 29.88 842 24.86 7.6 45.7 55 -0.8 30.5
04:45 1013 29.91 842 24.86 7.5 45.5 56 -0.7 30.7
04:50 1013 29.91 842 24.86 7.4 45.3 60 0.2 32.4
04:55 1013 29.91 842 24.86 6.8 44.3 62 0.2 32.3
05:00 1012 29.88 842 24.86 6.6 43.9 62 -0.1 31.9
05:05 1012 29.88 842 24.86 6.8 44.2 61 -0.3 31.5
05:10 1012 29.88 842 24.86 6.8 44.3 60 -0.4 31.4
05:15 1013 29.91 842 24.86 6.9 44.3 60 -0.4 31.3
05:20 1013 29.91 842 24.86 6.8 44.2 62 0 32.1
05:25 1013 29.91 842 24.86 6.3 43.4 64 0.1 32.2
05:30 1013 29.91 842 24.86 5.9 42.6 67 0.2 32.4
05:35 1013 29.91 842 24.86 5.8 42.5 65 -0.2 31.6
05:40 1013 29.91 842 24.86 6.1 43 64 -0.1 31.9
05:45 1013 29.91 842 24.86 6.2 43.1 65 0.1 32.1
05:50 1013 29.91 842 24.86 6 42.9 64 -0.2 31.6
05:55 1013 29.91 842 24.86 6 42.9 65 -0.1 31.8
06:00 1013 29.91 842 24.86 6 42.8 65 0 32
06:05 1013 29.91 842 24.86 5.9 42.6 67 0.2 32.3
06:10 1013 29.91 842 24.86 5.8 42.4 66 -0.1 31.9
06:15 1013 29.91 842 24.86 5.7 42.3 65 -0.4 31.3
06:20 1013 29.91 842 24.86 6 42.7 64 -0.4 31.2
06:25 1013 29.91 842 24.86 6.2 43.1 63 -0.4 31.3
06:30 1013 29.91 842 24.86 6.2 43.1 62 -0.6 30.9
06:35 1013 29.91 842 24.86 6.1 43 63 -0.3 31.4
06:40 1013 29.91 842 24.86 5.7 42.3 65 -0.4 31.3
06:45 1013 29.91 842 24.86 5.4 41.7 65 -0.6 31
06:50 1013 29.91 842 24.86 5.6 42 63 -0.8 30.5
06:55 1013 29.91 842 24.86 5.8 42.4 63 -0.8 30.6
07:00 1013 29.91 842 24.86 6 42.8 63 -0.6 31
07:05 1013 29.91 842 24.86 6.2 43.2 62 -0.6 30.9
07:10 1013 29.91 842 24.86 6.7 44.1 58 -1 30.2
07:15 1013 29.91 842 24.86 7.2 44.9 55 -1.2 29.8
07:20 1013 29.91 842 24.86 7.1 44.9 58 -0.6 31
07:25 1013 29.91 842 24.86 6.9 44.5 59 -0.4 31.3
07:30 1013 29.91 842 24.86 7.5 45.5 55 -0.9 30.4
07:35 1013 29.91 842 24.86 8.3 46.9 53 -0.8 30.5
07:40 1013 29.91 842 24.86 8.4 47.1 52 -0.9 30.3
07:45 1013 29.91 842 24.86 8.8 47.8 52 -0.6 30.8
07:50 1013 29.91 842 24.86 9.2 48.5 47 -1.5 29.3
07:55 1013 29.91 842 24.86 9.2 48.5 48 -1.2 29.9
08:00 1013 29.91 842 24.86 9.5 49.1 47 -1.2 29.8
08:05 1013 29.91 842 24.86 9.5 49 46 -1.4 29.5
08:10 1013 29.91 842 24.86 9.5 49.1 47 -1.3 29.6
08:15 1013 29.91 842 24.86 9.7 49.5 46 -1.3 29.6
08:20 1013 29.91 842 24.86 10 49.9 45 -1.4 29.5
08:25 1013 29.91 842 24.86 10.1 50.1 45 -1.3 29.7
08:30 1013 29.91 842 24.86 10.3 50.5 45 -1 30.2
08:35 1013 29.91 842 24.86 10.3 50.6 42 -1.9 28.5
08:40 1013 29.91 842 24.86 9.9 49.7 44 -1.9 28.7
08:45 1013 29.91 842 24.86 9.9 49.9 40 -3 26.6
08:50 1013 29.91 842 24.86 9.5 49.2 42 -2.9 26.9
08:55 1013 29.91 842 24.86 9.7 49.5 41 -2.9 26.8
09:00 1013 29.91 842 24.86 10.1 50.2 40 -2.7 27.1
09:05 1013 29.91 842 24.86 10.2 50.3 40 -2.7 27.2
09:10 1013 29.91 842 24.86 10.4 50.7 39 -2.8 27
09:15 1013 29.91 842 24.86 10.2 50.4 39 -3 26.7
09:20 1013 29.91 842 24.86 10.3 50.5 41 -2.5 27.5
09:25 1013 29.91 842 24.86 10.2 50.4 40 -2.6 27.3
09:30 1013 29.91 842 24.86 10 50 41 -2.7 27.1
09:35 1013 29.91 842 24.86 10.2 50.3 40 -2.8 27
09:40 1013 29.91 842 24.86 10 50.1 40 -3 26.6
09:45 1013 29.91 842 24.86 10 49.9 38 -3.6 25.4
09:50 1013 29.91 842 24.86 10.6 51.2 38 -3.2 26.2
09:55 1013 29.91 842 24.86 11.4 52.5 34 -4 24.8
10:00 1013 29.91 842 24.86 10.7 51.2 38 -3 26.6
10:05 1012 29.88 842 24.86 10.6 51.1 35 -4.1 24.7
10:10 1012 29.88 842 24.86 10.9 51.7 36 -3.6 25.5
10:15 1012 29.88 842 24.86 10.5 50.9 37 -3.4 25.9
10:20 1012 29.88 842 24.86 10.9 51.6 37 -3.3 26
10:25 1012 29.88 842 24.86 10.8 51.4 38 -2.8 26.9
10:30 1012 29.88 842 24.86 10.9 51.6 36 -3.7 25.3
10:35 1012 29.88 842 24.86 11.3 52.4 35 -3.6 25.5
10:40 1012 29.88 842 24.86 11.9 53.4 34 -3.5 25.8
10:45 1012 29.88 842 24.86 11.8 53.2 35 -3.2 26.2
10:50 1012 29.88 842 24.86 11.4 52.5 35 -3.4 25.9
10:55 1012 29.88 842 24.86 11.6 52.9 35 -3.3 26.1
11:00 1012 29.88 842 24.86 11.4 52.6 35 -3.6 25.6
11:05 1012 29.88 842 24.86 11.4 52.6 35 -3.4 25.9
11:10 1012 29.88 842 24.86 11.1 51.9 36 -3.3 26.1
11:15 1012 29.88 842 24.86 11.2 52.2 35 -3.7 25.4
11:20 1012 29.88 842 24.86 11.4 52.5 36 -3.3 26.1
11:25 1012 29.88 842 24.86 11 51.9 37 -2.9 26.7
11:30 1012 29.88 842 24.86 10.8 51.4 40 -2.2 28
11:35 1012 29.88 842 24.86 10.4 50.7 43 -1.5 29.2
11:40 1013 29.91 842 24.86 10 49.9 47 -0.8 30.5
11:45 1013 29.91 842 24.86 9.5 49.2 51 0.1 32.1
11:50 1013 29.91 842 24.86 10.1 50.2 48 -0.3 31.5
11:55 1013 29.91 842 24.86 10.7 51.2 43 -1.4 29.5
12:00 1013 29.91 842 24.86 10.6 51.1 41 -2 28.5
12:05 1013 29.91 842 24.86 10.7 51.2 43 -1.5 29.3
12:10 1013 29.91 842 24.86 10.3 50.6 46 -0.7 30.8
12:15 1013 29.91 842 24.86 9.5 49 53 0.4 32.7
12:20 1013 29.91 842 24.86 8.7 47.6 53 -0.3 31.4
12:25 1013 29.91 842 24.86 9 48.1 53 -0 31.9
12:30 1013 29.91 842 24.86 9.5 49 51 -0 31.9
12:35 1013 29.91 842 24.86 9.3 48.8 50 -0.6 30.9
12:40 1013 29.91 842 24.86 7.9 46.2 56 -0.4 31.2
12:45 1013 29.91 842 24.86 7.9 46.2 57 -0 31.9
12:50 1013 29.91 842 24.86 8.2 46.7 50 -1.7 28.9
12:55 1013 29.91 842 24.86 8 46.4 51 -1.5 29.3
13:00 1013 29.91 842 24.86 8 46.4 53 -0.9 30.3
13:05 1013 29.91 842 24.86 7.8 46.1 55 -0.6 30.9
13:10 1013 29.91 842 24.86 7.8 46 57 -0.3 31.5
13:15 1013 29.91 842 24.86 8 46.4 55 -0.5 31.1
13:20 1013 29.91 842 24.86 9.2 48.5 42 -2.9 26.7
13:25 1013 29.91 842 24.86 10.3 50.5 40 -2.8 27
13:30 1013 29.91 842 24.86 10.7 51.3 45 -0.7 30.7
13:35 1013 29.91 842 24.86 9.6 49.3 47 -1 30.2
13:40 1013 29.91 842 24.86 9.4 49 47 -1.3 29.7
13:45 1013 29.91 842 24.86 9.3 48.7 49 -0.8 30.5
13:50 1013 29.91 842 24.86 9.1 48.4 49 -1 30.2
13:55 1013 29.91 842 24.86 8.8 47.9 51 -0.7 30.7
14:00 1013 29.91 842 24.86 9 48.1 48 -1.4 29.5
14:05 1013 29.91 842 24.86 9.1 48.3 49 -1.1 30
14:10 1013 29.91 842 24.86 9.5 49 44 -2.1 28.2
14:15 1013 29.91 842 24.86 10.1 50.3 42 -2.2 28
14:20 1013 29.91 842 24.86 10.6 51.1 41 -2 28.4
14:25 1013 29.91 842 24.86 10.7 51.3 38 -3.1 26.5
14:30 1013 29.91 842 24.86 10.8 51.4 39 -2.7 27.1
14:35 1013 29.91 842 24.86 10.7 51.3 38 -3 26.5
14:40 1013 29.91 842 24.86 10.8 51.4 37 -3.2 26.2
14:45 1013 29.91 842 24.86 10.4 50.8 40 -2.6 27.3
14:50 1013 29.91 842 24.86 10.3 50.5 38 -3.3 26
14:55 1012 29.88 842 24.86 10.1 50.2 40 -3 26.7
15:00 1012 29.88 842 24.86 10 50.1 40 -3 26.5
15:05 1012 29.88 841 24.83 10.5 50.8 35 -4.4 24
15:10 1012 29.88 841 24.83 11.2 52.2 35 -3.7 25.3
15:15 1012 29.88 841 24.83 11.3 52.3 35 -3.6 25.6
15:20 1012 29.88 841 24.83 10.8 51.5 36 -3.7 25.4
15:25 1012 29.88 841 24.83 11.3 52.4 34 -4 24.9
15:30 1012 29.88 841 24.83 11.9 53.4 34 -3.4 25.9
15:35 1012 29.88 842 24.86 11.8 53.2 35 -3.1 26.4
15:40 1012 29.88 842 24.86 11.2 52.2 42 -1.1 30.1
15:45 1012 29.88 842 24.86 10.5 50.8 40 -2.5 27.6
15:50 1012 29.88 842 24.86 10.6 51 45 -0.8 30.6
15:55 1012 29.88 842 24.86 10.9 51.6 38 -3 26.7
16:00 1012 29.88 841 24.83 11.5 52.7 35 -3.4 25.8
16:05 1012 29.88 841 24.83 12.1 53.7 34 -3.4 25.8
16:10 1012 29.88 841 24.83 12.3 54.1 33 -3.6 25.6
16:15 1012 29.88 841 24.83 12.3 54.1 32 -4 24.9
16:20 1012 29.88 841 24.83 12.2 54 32 -4 24.8
16:25 1012 29.88 841 24.83 12.3 54.2 31 -4.4 24.1
16:30 1012 29.88 841 24.83 12.4 54.3 30 -4.6 23.7
16:35 1012 29.88 841 24.83 12.5 54.4 32 -3.8 25.1
16:40 1012 29.88 841 24.83 11.7 53.1 32 -4.5 23.9
16:45 1012 29.88 841 24.83 11.5 52.8 32 -4.6 23.8
16:50 1012 29.88 841 24.83 11.5 52.7 33 -4.2 24.4
16:55 1012 29.88 841 24.83 11.9 53.4 33 -3.7 25.3
17:00 1012 29.88 841 24.83 11.8 53.3 35 -3.1 26.4
17:05 1012 29.88 842 24.86 11.4 52.4 35 -3.4 26
17:10 1012 29.88 842 24.86 10.8 51.4 36 -3.5 25.7
17:15 1012 29.88 842 24.86 10.1 50.2 41 -2.4 27.7
17:20 1013 29.91 842 24.86 9.5 49.2 43 -2.5 27.5
17:25 1013 29.91 842 24.86 9.3 48.8 43 -2.6 27.3
17:30 1013 29.91 842 24.86 9.2 48.5 41 -3.3 26.1
17:35 1013 29.91 842 24.86 9.3 48.7 41 -3.2 26.3
17:40 1013 29.91 842 24.86 9.2 48.6 42 -3.2 26.3
17:45 1013 29.91 842 24.86 9.2 48.6 41 -3.2 26.2
17:50 1013 29.91 842 24.86 9 48.3 43 -2.8 26.9
17:55 1013 29.91 842 24.86 8.9 48 43 -2.9 26.9
18:00 1013 29.91 842 24.86 9 48.2 42 -3.1 26.4
18:05 1013 29.91 842 24.86 8.9 48.1 42 -3.2 26.2
18:10 1013 29.91 842 24.86 8.6 47.4 43 -3.2 26.2
18:15 1013 29.91 843 24.89 8.6 47.4 43 -3.4 26
18:20 1013 29.91 843 24.89 8.5 47.2 44 -3.2 26.3
18:25 1013 29.91 843 24.89 8.2 46.7 44 -3.2 26.2
18:30 1013 29.91 843 24.89 8 46.3 46 -2.9 26.8
18:35 1014 29.94 843 24.89 7.8 46 46 -2.9 26.7
18:40 1014 29.94 843 24.89 7.8 46 47 -2.9 26.8
18:45 1014 29.94 843 24.89 7.7 45.9 47 -2.8 27
18:50 1014 29.94 843 24.89 7.9 46.3 46 -2.9 26.7
18:55 1014 29.94 843 24.89 7.9 46.2 47 -2.8 26.9
19:00 1014 29.94 843 24.89 7.7 45.9 48 -2.7 27.2
19:05 1014 29.94 843 24.89 7.7 45.8 50 -2.1 28.2
19:10 1014 29.94 843 24.89 7.4 45.2 51 -2.1 28.3
19:15 1014 29.94 843 24.89 7.2 45 52 -1.9 28.6
19:20 1014 29.94 843 24.89 7.3 45.1 50 -2.3 27.8
19:25 1014 29.94 843 24.89 7.4 45.4 51 -2.1 28.3
19:30 1014 29.94 843 24.89 7.7 45.8 50 -2.2 28.1
19:35 1014 29.94 843 24.89 7.8 46.1 46 -2.9 26.8
19:40 1014 29.94 843 24.89 7.8 46 43 -4 24.7
19:45 1014 29.94 843 24.89 8.1 46.5 39 -5.1 22.8
19:50 1014 29.94 843 24.89 8.2 46.8 37 -5.6 22
19:55 1014 29.94 843 24.89 8.4 47.1 35 -6.1 21.1
20:00 1014 29.94 843 24.89 8.5 47.2 37 -5.4 22.2
20:05 1014 29.94 843 24.89 8.6 47.4 38 -5 23.1
20:10 1014 29.94 843 24.89 8.5 47.3 40 -4.3 24.2
20:15 1014 29.94 843 24.89 8.2 46.7 40 -4.7 23.5
20:20 1014 29.94 843 24.89 8.4 47.2 40 -4.5 23.9
20:25 1014 29.94 843 24.89 8.5 47.3 39 -4.7 23.5
20:30 1014 29.94 843 24.89 8.6 47.5 38 -4.8 23.4
20:35 1014 29.94 843 24.89 8.6 47.5 36 -5.7 21.7
20:40 1014 29.94 843 24.89 8.5 47.3 34 -6.4 20.4
20:45 1014 29.94 843 24.89 8.4 47.1 34 -6.7 19.9
20:50 1014 29.94 843 24.89 8.2 46.7 31 -7.8 18
20:55 1014 29.94 843 24.89 8 46.4 31 -8.1 17.3
21:00 1014 29.94 844 24.92 7.8 46.1 29 -9 15.7
21:05 1015 29.97 844 24.92 7.8 46 28 -9.7 14.5
21:10 1015 29.97 844 24.92 7.7 45.9 27 -10.3 13.5
21:15 1015 29.97 844 24.92 7.6 45.8 27 -10.2 13.6
21:20 1015 29.97 844 24.92 7.5 45.4 28 -10 14
21:25 1015 29.97 844 24.92 7.3 45.1 28 -9.9 14.2
21:30 1015 29.97 844 24.92 7.1 44.8 29 -9.8 14.3
21:35 1015 29.97 844 24.92 7 44.5 29 -9.9 14.1
21:40 1015 29.97 844 24.92 6.9 44.4 30 -9.4 15.1
21:45 1015 29.97 845 24.95 6.7 44.1 33 -8.3 17.1
21:50 1015 29.97 845 24.95 6.4 43.6 36 -7.6 18.4
21:55 1016 30 845 24.95 5.9 42.7 40 -6.5 20.3
22:00 1016 30 845 24.95 5.7 42.2 43 -6.1 21.1
22:05 1016 30 845 24.95 5.4 41.7 44 -5.9 21.3
22:10 1016 30 845 24.95 5.2 41.4 45 -5.8 21.5
22:15 1016 30 845 24.95 5.1 41.2 45 -5.8 21.5
22:20 1016 30 845 24.95 5 41 46 -5.7 21.8
22:25 1016 30 845 24.95 4.8 40.7 47 -5.6 22
22:30 1016 30 845 24.95 4.6 40.3 48 -5.6 22
22:35 1016 30 845 24.95 4.4 40 48 -5.6 21.9
22:40 1016 30 845 24.95 4.3 39.7 49 -5.5 22.1
22:45 1016 30 846 24.98 4.1 39.4 50 -5.4 22.2
22:50 1016 30 846 24.98 3.9 39.1 51 -5.4 22.3
22:55 1017 30.03 846 24.98 3.7 38.7 51 -5.4 22.3
23:00 1017 30.03 846 24.98 3.6 38.5 52 -5.3 22.5
23:05 1017 30.03 846 24.98 3.6 38.4 53 -5.1 22.8
23:10 1017 30.03 846 24.98 3.5 38.2 54 -5.1 22.9
23:15 1017 30.03 846 24.98 3.4 38.1 54 -5.1 22.8
23:20 1017 30.03 846 24.98 3.4 38.1 54 -5.1 22.8
23:25 1017 30.03 847 25.01 3.3 37.9 55 -5 23.1
23:30 1017 30.03 847 25.01 3.2 37.7 54 -5.2 22.7
23:35 1017 30.03 847 25.01 3.2 37.7 55 -5 22.9
23:40 1018 30.06 847 25.01 3.1 37.5 54 -5.4 22.3
23:45 1018 30.06 847 25.01 3.1 37.7 54 -5.3 22.4
23:50 1018 30.06 847 25.01 3.2 37.8 54 -5.2 22.7
23:55 1018 30.06 847 25.01 3.2 37.7 54 -5.3 22.5
24:00 1018 30.06 847 25.01 3.2 37.8 53 -5.5 22.2